Time;durP1;ratioP1;P1;durP2;ratioP2;P2;SDS_P1;SDS_P2;PMS_P1;PMS_P2;Temp;Humidity;BMP_temperature;BMP_pressure;BME280_temperature;BME280_humidity;BME280_pressure;Samples;Min_cycle;Max_cycle;Signal;HPM_P1;HPM_P2
2022/01/23 00:00:28;;;;;;;0.73;0.73;;;;;;;9.87;62.09;103652.22;5055260;28;20510;-94
2022/01/23 00:02:59;;;;;;;0.10;0.10;;;;;;;9.90;62.32;103647.00;5047744;28;20092;-87
2022/01/23 00:05:32;;;;;;;0.28;0.28;;;;;;;9.86;62.17;103639.84;5048278;28;20029;-83
2022/01/23 00:07:59;;;;;;;0.10;0.10;;;;;;;9.83;62.19;103648.59;5044501;28;20041;-82
2022/01/23 00:10:25;;;;;;;0.20;0.20;;;;;;;9.87;62.28;103644.28;5035453;28;20036;-82
2022/01/23 00:13:01;;;;;;;0.10;0.10;;;;;;;9.84;62.58;103646.81;5039730;28;20029;-86
2022/01/23 00:18:14;;;;;;;0.13;0.13;;;;;;;9.94;62.99;103648.00;5029451;28;20045;-85
2022/01/23 00:20:40;;;;;;;0.10;0.10;;;;;;;9.97;62.78;103642.75;5030321;28;20380;-88
2022/01/23 00:23:14;;;;;;;0.52;0.52;;;;;;;10.01;62.63;103640.25;5032021;28;20029;-83
2022/01/23 00:31:13;;;;;;;0.10;0.10;;;;;;;9.99;62.44;103639.31;5031965;28;20092;-85
2022/01/23 00:33:39;;;;;;;0.10;0.10;;;;;;;9.98;62.20;103641.91;5040023;28;20552;-84
2022/01/23 00:36:05;;;;;;;0.10;0.10;;;;;;;9.96;62.30;103651.59;5037423;28;20053;-88
2022/01/23 00:38:32;;;;;;;0.10;0.10;;;;;;;9.93;62.55;103647.09;5035688;28;20057;-86
2022/01/23 00:40:58;;;;;;;0.10;0.10;;;;;;;9.96;62.30;103649.81;5031466;28;20187;-87
2022/01/23 00:43:28;;;;;;;0.00;0.00;;;;;;;9.99;62.27;103647.28;5034559;28;20424;-88
2022/01/23 00:46:08;;;;;;;0.10;0.10;;;;;;;9.99;62.44;103636.69;5033442;28;20110;-88
2022/01/23 00:48:38;;;;;;;0.10;0.10;;;;;;;9.97;62.34;103634.81;5036515;28;20481;-86
2022/01/23 00:51:07;;;;;;;0.10;0.10;;;;;;;9.95;62.33;103626.84;5039181;28;20081;-87
2022/01/23 00:53:33;;;;;;;0.55;0.55;;;;;;;9.98;62.49;103634.88;5038524;28;20030;-87
2022/01/23 00:55:59;;;;;;;0.55;0.30;;;;;;;9.98;62.70;103628.66;5037809;28;20029;-85
2022/01/23 00:58:26;;;;;;;0.95;0.95;;;;;;;9.97;62.87;103622.50;5040223;28;20056;-88
2022/01/23 01:00:55;;;;;;;0.10;0.10;;;;;;;9.95;62.36;103621.53;5039511;28;20029;-88
2022/01/23 01:03:21;;;;;;;0.28;0.28;;;;;;;9.91;62.95;103626.72;5040831;28;20381;-90
2022/01/23 01:05:47;;;;;;;0.10;0.10;;;;;;;9.87;62.43;103620.44;5043453;28;20029;-89
2022/01/23 01:08:13;;;;;;;0.10;0.10;;;;;;;9.83;63.13;103630.06;5047428;28;20041;-89
2022/01/23 01:10:59;;;;;;;0.20;0.20;;;;;;;9.84;62.85;103630.94;5033509;28;20374;-89
2022/01/23 01:13:31;;;;;;;0.10;0.10;;;;;;;9.83;63.03;103629.13;5022538;28;20056;-87
2022/01/23 01:16:23;;;;;;;0.10;0.10;;;;;;;9.84;62.95;103625.66;5025989;28;20112;-87
2022/01/23 01:30:34;;;;;;;0.15;0.15;;;;;;;9.85;62.97;103633.63;5025847;28;20392;-89
2022/01/23 01:35:35;;;;;;;0.10;0.10;;;;;;;9.86;63.17;103640.72;5127758;27;20383;-88
2022/01/23 01:38:02;;;;;;;0.10;0.10;;;;;;;9.85;63.15;103643.34;5090523;28;20024;-88
2022/01/23 01:40:29;;;;;;;0.10;0.10;;;;;;;9.86;63.15;103645.13;5083880;28;20115;-88
2022/01/23 01:42:58;;;;;;;0.10;0.10;;;;;;;9.87;63.22;103641.63;5077262;28;20032;-88
2022/01/23 01:45:36;;;;;;;0.10;0.10;;;;;;;9.86;63.35;103645.13;5086984;28;20032;-89
2022/01/23 01:48:06;;;;;;;0.43;0.43;;;;;;;9.89;63.40;103645.19;5075686;28;20420;-88
2022/01/23 01:50:37;;;;;;;0.10;0.10;;;;;;;9.91;63.11;103648.81;5083989;28;20036;-88
2022/01/23 01:53:03;;;;;;;0.10;0.10;;;;;;;9.89;63.23;103655.78;5075500;28;20029;-88
2022/01/23 01:55:38;;;;;;;0.10;0.10;;;;;;;9.91;63.36;103650.56;5070957;28;20517;-89
2022/01/23 01:58:44;;;;;;;0.10;0.10;;;;;;;9.93;63.07;103652.41;5084448;28;20032;-88
2022/01/23 02:09:34;;;;;;;0.10;0.10;;;;;;;9.92;63.54;103650.59;4639495;27;13230539;-88
2022/01/23 02:12:56;;;;;;;0.10;0.10;;;;;;;9.94;63.41;103654.16;5090349;28;20035;-88
2022/01/23 02:51:01;;;;;;;0.10;0.10;;;;;;;9.92;63.52;103617.91;5050839;28;20041;-87
2022/01/23 02:56:21;;;;;;;0.25;0.25;;;;;;;9.90;63.75;103615.22;5078069;28;20406;-87
2022/01/23 02:58:58;;;;;;;0.20;0.20;;;;;;;9.91;63.90;103609.06;5080135;28;20064;-87
2022/01/23 03:01:28;;;;;;;0.10;0.10;;;;;;;9.91;63.86;103600.25;5065361;28;20358;-87
2022/01/23 03:04:01;;;;;;;0.73;0.73;;;;;;;9.90;63.82;103598.44;5065843;28;20102;-87
2022/01/23 03:06:52;;;;;;;0.40;0.40;;;;;;;9.91;64.01;103601.13;5070475;28;20032;-87
2022/01/23 03:12:10;;;;;;;0.10;0.10;;;;;;;9.92;63.81;103605.56;5081113;28;20435;-87
2022/01/23 03:14:46;;;;;;;0.52;0.52;;;;;;;9.92;64.02;103604.66;5070339;28;20544;-87
2022/01/23 03:31:22;;;;;;;0.15;0.15;;;;;;;9.95;63.79;103608.28;5049614;28;20073;-88
2022/01/23 03:33:48;;;;;;;0.10;0.10;;;;;;;9.96;63.96;103610.09;5049705;28;20049;-88
2022/01/23 03:36:15;;;;;;;0.57;0.57;;;;;;;9.95;64.04;103607.41;5049877;28;20029;-87
2022/01/23 03:38:42;;;;;;;0.10;0.10;;;;;;;9.94;63.95;103611.78;5049792;28;20043;-88
2022/01/23 03:41:11;;;;;;;0.77;0.60;;;;;;;9.96;63.71;103615.38;5049140;28;20017;-88
2022/01/23 03:43:41;;;;;;;0.10;0.10;;;;;;;9.95;63.75;103608.28;5049825;28;20037;-87
2022/01/23 03:51:43;;;;;;;0.10;0.10;;;;;;;9.94;63.72;103643.56;5048774;28;20048;-89
2022/01/23 03:54:09;;;;;;;0.10;0.10;;;;;;;9.91;63.84;103642.63;5049672;28;20033;-88
2022/01/23 03:56:36;;;;;;;0.10;0.10;;;;;;;9.90;63.78;103641.72;5049725;28;20112;-89
2022/01/23 03:59:04;;;;;;;0.40;0.40;;;;;;;9.88;64.16;103644.31;5049577;28;20048;-88
2022/01/23 04:01:30;;;;;;;0.10;0.10;;;;;;;9.86;64.24;103629.25;5048952;28;20388;-89
2022/01/23 04:04:01;;;;;;;0.00;0.00;;;;;;;9.86;63.90;103635.41;5049168;28;20041;-88
2022/01/23 04:06:28;;;;;;;0.10;0.10;;;;;;;9.87;64.24;103636.34;5049503;28;20388;-89
2022/01/23 04:08:54;;;;;;;0.10;0.10;;;;;;;9.88;64.17;103635.47;5049193;28;20484;-88
2022/01/23 04:11:21;;;;;;;0.10;0.10;;;;;;;9.88;63.98;103644.31;5048984;28;20048;-88
2022/01/23 04:13:54;;;;;;;0.10;0.10;;;;;;;9.88;64.15;103632.81;5048800;28;20032;-88
2022/01/23 04:19:36;;;;;;;0.10;0.10;;;;;;;9.90;64.09;103630.22;5123116;27;20740;-87
2022/01/23 04:33:30;;;;;;;0.10;0.10;;;;;;;9.95;63.93;103655.09;5089624;28;20185;-90
2022/01/23 05:01:47;;;;;;;0.10;0.10;;;;;;;9.88;63.99;103654.00;5081831;28;20052;-84
2022/01/23 05:04:16;;;;;;;0.03;0.03;;;;;;;9.86;64.54;103639.84;5089582;28;20067;-84
2022/01/23 05:06:46;;;;;;;0.10;0.10;;;;;;;9.85;64.06;103649.50;5090306;28;20060;-84
2022/01/23 05:09:14;;;;;;;0.10;0.10;;;;;;;9.84;64.56;103647.75;5103490;28;20028;-83
2022/01/23 05:11:48;;;;;;;0.10;0.10;;;;;;;9.82;64.58;103644.16;5103502;28;20028;-84
2022/01/23 05:14:18;;;;;;;0.10;0.10;;;;;;;9.81;64.15;103642.34;5096479;28;20029;-83
2022/01/23 05:16:44;;;;;;;0.10;0.10;;;;;;;9.81;64.17;103645.00;5106011;28;20497;-84
2022/01/23 05:19:11;;;;;;;0.20;0.20;;;;;;;9.80;64.40;103639.66;5092795;28;20074;-84
2022/01/23 05:21:56;;;;;;;0.10;0.10;;;;;;;9.81;64.54;103636.16;5103595;28;20037;-84
2022/01/23 05:24:27;;;;;;;0.10;0.10;;;;;;;9.81;64.63;103646.75;5108731;28;20027;-84
2022/01/23 05:27:03;;;;;;;0.15;0.15;;;;;;;9.86;64.43;103647.78;5092722;28;20097;-84
2022/01/23 05:29:29;;;;;;;0.10;0.10;;;;;;;9.79;64.57;103653.75;5101953;28;20103;-84
2022/01/23 05:31:56;;;;;;;0.10;0.10;;;;;;;9.79;64.71;103651.09;5090809;28;20028;-84
2022/01/23 05:34:23;;;;;;;0.10;0.10;;;;;;;9.77;64.39;103644.84;5096227;28;20032;-84
2022/01/23 05:36:50;;;;;;;0.10;0.10;;;;;;;9.77;64.79;103643.13;5078827;28;20028;-83
2022/01/23 05:39:20;;;;;;;0.10;0.10;;;;;;;9.79;64.38;103643.16;5096871;28;20032;-84
2022/01/23 05:41:46;;;;;;;1.23;0.90;;;;;;;9.78;64.49;103647.56;5090866;28;20385;-83
2022/01/23 05:44:13;;;;;;;0.10;0.10;;;;;;;9.78;64.41;103641.34;5088079;28;20101;-84
2022/01/23 05:46:39;;;;;;;0.10;0.10;;;;;;;9.76;64.35;103643.97;5081467;28;20518;-84
2022/01/23 05:49:06;;;;;;;0.10;0.10;;;;;;;9.77;64.62;103639.56;5092501;28;20040;-84
2022/01/23 05:51:32;;;;;;;0.10;0.10;;;;;;;9.68;64.56;103635.81;5081455;28;20028;-83
2022/01/23 05:53:58;;;;;;;0.10;0.10;;;;;;;9.66;64.84;103637.50;5087418;28;20031;-84
2022/01/23 05:56:24;;;;;;;0.10;0.10;;;;;;;9.68;64.69;103641.13;5095505;28;20107;-83
2022/01/23 05:58:50;;;;;;;0.20;0.20;;;;;;;9.76;64.84;103643.06;5079260;28;20032;-83
2022/01/23 06:01:17;;;;;;;0.20;0.20;;;;;;;9.77;64.66;103637.81;5091725;28;20460;-83
2022/01/23 06:03:43;;;;;;;0.10;0.10;;;;;;;9.78;64.71;103644.00;5090128;28;20032;-84
2022/01/23 06:06:09;;;;;;;0.20;0.20;;;;;;;9.77;64.79;103647.50;5084607;28;20422;-83
2022/01/23 06:08:35;;;;;;;0.10;0.10;;;;;;;9.76;64.51;103640.41;5090499;28;20032;-83
2022/01/23 06:11:01;;;;;;;1.60;0.68;;;;;;;9.77;64.60;103639.56;5084703;28;20107;-83
2022/01/23 06:13:28;;;;;;;0.10;0.10;;;;;;;9.78;64.61;103641.34;5090156;28;20028;-83
2022/01/23 06:15:55;;;;;;;0.10;0.10;;;;;;;9.78;64.47;103633.41;5084484;28;20518;-83
2022/01/23 06:18:21;;;;;;;0.10;0.10;;;;;;;9.74;64.77;103634.19;5081791;28;20127;-83
2022/01/23 06:20:47;;;;;;;0.10;0.10;;;;;;;9.72;64.70;103642.09;5091300;28;20039;-83
2022/01/23 06:23:14;;;;;;;0.10;0.10;;;;;;;9.74;64.69;103639.50;5087759;28;20035;-83
2022/01/23 06:25:43;;;;;;;0.20;0.20;;;;;;;9.75;64.50;103641.28;5088187;28;20375;-83
2022/01/23 06:28:10;;;;;;;1.35;1.35;;;;;;;9.71;64.96;103640.28;5086660;28;20024;-83
2022/01/23 06:30:39;;;;;;;0.10;0.10;;;;;;;9.70;64.70;103644.69;5094571;28;20444;-83
2022/01/23 06:33:06;;;;;;;3.33;0.82;;;;;;;9.68;64.46;103643.75;5082557;28;20035;-83
2022/01/23 06:35:33;;;;;;;0.10;0.10;;;;;;;9.67;64.79;103649.91;5088474;28;20391;-83
2022/01/23 06:37:59;;;;;;;0.10;0.10;;;;;;;9.69;64.80;103650.84;5084322;28;20081;-83
2022/01/23 06:40:25;;;;;;;0.13;0.13;;;;;;;9.60;65.07;103653.22;5080832;28;20025;-83
2022/01/23 06:42:51;;;;;;;0.65;0.65;;;;;;;9.57;65.20;103658.44;5093338;28;20110;-84
2022/01/23 06:45:17;;;;;;;0.10;0.10;;;;;;;9.60;64.88;103665.56;5078930;28;20024;-84
2022/01/23 06:47:43;;;;;;;0.10;0.10;;;;;;;9.53;65.10;103665.38;5089042;28;20036;-83
2022/01/23 06:50:10;;;;;;;0.17;0.17;;;;;;;9.46;65.04;103660.75;5088636;28;20032;-84
2022/01/23 06:52:36;;;;;;;0.10;0.10;;;;;;;9.45;64.52;103666.00;5080395;28;20037;-83
2022/01/23 06:55:02;;;;;;;0.10;0.10;;;;;;;9.43;64.82;103673.00;5091857;28;20044;-83
2022/01/23 06:57:28;;;;;;;0.10;0.10;;;;;;;9.41;64.95;103665.00;5080351;28;20024;-84
2022/01/23 06:59:54;;;;;;;0.30;0.30;;;;;;;9.41;65.03;103672.03;5084815;28;20037;-84
2022/01/23 07:02:21;;;;;;;0.22;0.22;;;;;;;9.40;65.09;103671.16;5089797;28;20131;-82
2022/01/23 07:04:47;;;;;;;0.20;0.20;;;;;;;9.41;65.45;103672.03;5094235;28;20043;-84
2022/01/23 07:07:13;;;;;;;0.10;0.10;;;;;;;9.40;65.39;103671.16;5077309;28;20024;-82
2022/01/23 07:09:40;;;;;;;0.17;0.17;;;;;;;9.40;65.40;103671.16;5093868;28;20028;-84
2022/01/23 07:12:06;;;;;;;0.10;0.10;;;;;;;9.39;65.29;103675.56;5082967;28;20097;-83
2022/01/23 07:14:32;;;;;;;0.10;0.10;;;;;;;9.41;65.09;103672.03;5076919;28;20111;-83
2022/01/23 07:16:59;;;;;;;0.17;0.17;;;;;;;9.39;64.87;103672.91;5090585;28;20028;-83
2022/01/23 07:19:25;;;;;;;0.10;0.10;;;;;;;9.41;65.12;103683.53;5079313;28;20024;-84
2022/01/23 07:21:51;;;;;;;0.10;0.10;;;;;;;9.38;64.79;103683.44;5084859;28;20077;-83
2022/01/23 07:24:17;;;;;;;0.68;0.68;;;;;;;9.35;65.05;103678.94;5076158;28;20039;-83
2022/01/23 07:26:44;;;;;;;0.10;0.10;;;;;;;9.35;65.42;103683.34;5089717;28;20024;-82
2022/01/23 07:29:10;;;;;;;0.10;0.10;;;;;;;9.31;65.72;103690.28;5076557;28;20066;-83
2022/01/23 07:34:16;;;;;;;0.10;0.10;;;;;;;9.36;65.46;103701.03;5083464;27;20426;-84
2022/01/23 07:36:43;;;;;;;0.10;0.10;;;;;;;9.40;65.49;103697.63;5063103;28;20029;-85
2022/01/23 07:39:09;;;;;;;0.10;0.10;;;;;;;9.44;65.26;103703.91;5041657;28;20052;-85
2022/01/23 07:41:35;;;;;;;0.10;0.10;;;;;;;9.44;64.90;103707.44;5039292;28;20083;-84
2022/01/23 07:44:01;;;;;;;0.90;0.90;;;;;;;9.46;64.71;103702.19;5041391;28;20034;-85
2022/01/23 07:46:27;;;;;;;0.17;0.17;;;;;;;9.47;64.95;103715.50;5036633;28;20061;-83
2022/01/23 07:48:54;;;;;;;0.10;0.10;;;;;;;9.48;64.97;103719.00;5047178;28;20076;-85
2022/01/23 07:51:20;;;;;;;0.20;0.20;;;;;;;9.49;64.99;103715.53;5042946;28;20516;-83
2022/01/23 07:53:46;;;;;;;0.10;0.10;;;;;;;9.50;65.16;103714.69;5048252;28;20041;-85
2022/01/23 07:56:12;;;;;;;0.20;0.20;;;;;;;9.48;65.38;103721.66;5048823;28;20116;-85
2022/01/23 07:58:39;;;;;;;0.10;0.10;;;;;;;9.49;65.47;103724.34;5046323;28;20026;-85
2022/01/23 08:01:05;;;;;;;0.17;0.17;;;;;;;9.49;64.93;103720.81;5046616;28;20061;-85
2022/01/23 08:03:31;;;;;;;0.10;0.10;;;;;;;9.46;64.87;103723.34;5049081;28;20029;-85
2022/01/23 08:05:58;;;;;;;0.10;0.10;;;;;;;9.47;65.22;103730.44;5046347;28;20018;-85
2022/01/23 08:08:24;;;;;;;0.10;0.10;;;;;;;9.45;64.96;103721.59;5047702;28;20072;-85
2022/01/23 08:10:50;;;;;;;0.30;0.30;;;;;;;9.47;64.86;103722.50;5048687;28;20392;-85
2022/01/23 08:13:16;;;;;;;1.10;1.10;;;;;;;9.49;65.25;103726.13;5045935;28;20029;-85
2022/01/23 08:15:43;;;;;;;0.10;0.10;;;;;;;9.51;65.15;103721.78;5046179;28;20337;-85
2022/01/23 08:18:09;;;;;;;0.10;0.10;;;;;;;9.52;65.10;103729.75;5044841;28;20116;-83
2022/01/23 08:20:36;;;;;;;0.10;0.10;;;;;;;9.55;65.42;103728.94;5046792;28;20534;-83
2022/01/23 08:23:03;;;;;;;0.10;0.10;;;;;;;9.57;64.96;103737.84;5048901;28;20048;-84
2022/01/23 08:25:30;;;;;;;0.40;0.40;;;;;;;9.58;64.86;103731.69;5037049;28;20021;-85
2022/01/23 08:27:57;;;;;;;0.10;0.10;;;;;;;9.59;65.31;103728.19;5033433;28;20404;-84
2022/01/23 08:30:23;;;;;;;0.30;0.30;;;;;;;9.61;65.02;103733.50;5034138;28;20086;-84
2022/01/23 08:32:49;;;;;;;0.10;0.10;;;;;;;9.62;65.01;103741.53;5042576;28;20036;-84
2022/01/23 08:35:16;;;;;;;0.10;0.10;;;;;;;9.62;65.05;103740.59;5037912;28;20064;-84
2022/01/23 08:37:43;;;;;;;1.17;1.17;;;;;;;9.64;65.19;103734.50;5030537;28;20236;-84
2022/01/23 08:40:22;;;;;;;0.25;0.25;;;;;;;9.63;64.97;103731.81;5037300;28;20042;-83
2022/01/23 08:42:52;;;;;;;0.10;0.10;;;;;;;9.66;65.25;103732.81;5040423;28;20084;-84
2022/01/23 08:45:18;;;;;;;0.10;0.10;;;;;;;9.66;65.20;103732.81;5025046;28;20490;-83
2022/01/23 08:47:47;;;;;;;0.10;0.10;;;;;;;9.68;65.30;103736.41;5021270;28;20017;-83
2022/01/23 08:50:15;;;;;;;0.10;0.10;;;;;;;9.66;64.71;103732.81;5023956;28;20029;-84
2022/01/23 08:52:42;;;;;;;0.13;0.13;;;;;;;9.66;65.26;103735.47;5028979;28;20030;-84
2022/01/23 08:55:09;;;;;;;0.85;0.47;;;;;;;9.67;64.85;103734.63;5023251;28;20037;-85
2022/01/23 08:57:35;;;;;;;0.10;0.10;;;;;;;9.68;64.86;103738.16;5029451;28;20026;-84
2022/01/23 09:00:02;;;;;;;0.47;0.47;;;;;;;9.71;65.15;103735.63;5025611;28;20122;-83
2022/01/23 09:02:29;;;;;;;0.10;0.10;;;;;;;9.70;64.71;103742.63;5024556;28;20374;-83
2022/01/23 09:04:56;;;;;;;0.10;0.10;;;;;;;9.74;65.19;103740.97;5022876;28;20061;-84
2022/01/23 09:07:22;;;;;;;0.10;0.10;;;;;;;9.76;65.09;103738.38;5014632;28;20053;-84
2022/01/23 09:09:48;;;;;;;0.20;0.20;;;;;;;9.78;65.08;103732.31;5023077;28;20419;-83
2022/01/23 09:14:55;;;;;;;0.25;0.25;;;;;;;9.83;64.83;103735.97;5034851;28;20997;-85
2022/01/23 09:17:22;;;;;;;0.10;0.10;;;;;;;9.86;64.83;103748.41;5023245;28;20109;-84
2022/01/23 09:19:48;;;;;;;0.50;0.50;;;;;;;9.91;65.01;103749.44;5024208;28;20037;-83
2022/01/23 09:22:16;;;;;;;2.17;2.08;;;;;;;9.93;64.83;103747.75;5026062;28;20031;-83
2022/01/23 09:24:42;;;;;;;0.10;0.10;;;;;;;9.95;64.97;103751.31;5023627;28;20042;-85
2022/01/23 09:27:18;;;;;;;0.10;0.10;;;;;;;9.99;64.78;103747.94;5025879;28;20022;-85
2022/01/23 09:29:47;;;;;;;1.13;0.82;;;;;;;10.04;64.96;103740.09;5021807;28;20038;-84
2022/01/23 09:32:15;;;;;;;0.10;0.10;;;;;;;10.02;64.73;103753.31;5018484;28;20120;-85
2022/01/23 09:34:42;;;;;;;0.17;0.17;;;;;;;10.00;64.70;103744.41;5018080;28;20042;-85
2022/01/23 09:37:11;;;;;;;1.35;0.77;;;;;;;10.04;64.56;103756.91;5017168;28;20517;-84
2022/01/23 09:39:40;;;;;;;0.20;0.20;;;;;;;10.06;64.82;103749.00;5017195;28;20473;-84
2022/01/23 09:42:12;;;;;;;1.08;1.08;;;;;;;10.14;64.90;103757.16;5014342;28;20133;-84
2022/01/23 09:44:41;;;;;;;;;;;;;;;10.30;64.21;103756.72;5023413;28;20053;-85
2022/01/23 09:47:11;;;;;;;0.22;0.22;;;;;;;10.20;64.47;103758.25;5014990;28;20361;-85
2022/01/23 09:49:39;;;;;;;0.50;0.50;;;;;;;10.24;64.57;103759.19;4998404;28;20045;-85
2022/01/23 09:52:07;;;;;;;0.25;0.25;;;;;;;10.26;64.37;103757.50;5019057;28;20113;-83
2022/01/23 09:54:34;;;;;;;0.28;0.28;;;;;;;10.31;64.17;103762.94;5017998;28;20049;-86
2022/01/23 09:57:03;;;;;;;0.03;0.03;;;;;;;10.35;64.53;103755.13;5020029;28;20037;-88
2022/01/23 09:59:30;;;;;;;0.10;0.10;;;;;;;10.40;64.54;103755.25;5022224;28;20093;-89
2022/01/23 10:01:58;;;;;;;1.85;1.08;;;;;;;10.49;64.33;103766.13;5015307;28;20440;-91
2022/01/23 10:04:26;;;;;;;0.10;0.10;;;;;;;10.55;64.67;103762.75;5025898;28;20033;-88
2022/01/23 10:06:53;;;;;;;0.20;0.20;;;;;;;10.63;64.35;103758.56;5017105;28;20026;-87
2022/01/23 10:09:22;;;;;;;0.85;0.85;;;;;;;10.72;64.41;103762.31;5019432;28;20033;-86
2022/01/23 10:11:49;;;;;;;0.10;0.10;;;;;;;10.71;63.95;103763.16;5016130;28;20036;-88
2022/01/23 10:14:18;;;;;;;1.15;1.05;;;;;;;10.79;63.90;103762.50;5040173;28;20043;-89
2022/01/23 10:16:45;;;;;;;0.55;0.55;;;;;;;10.79;63.90;103769.56;5037068;28;20112;-87
2022/01/23 10:19:12;;;;;;;0.73;0.73;;;;;;;10.78;63.46;103759.78;5040442;28;20029;-83
2022/01/23 10:21:39;;;;;;;0.20;0.20;;;;;;;10.77;63.80;103765.97;5033773;28;20104;-85
2022/01/23 10:24:07;;;;;;;0.52;0.52;;;;;;;10.81;63.82;103759.88;5043659;28;20124;-89
2022/01/23 10:26:53;;;;;;;0.55;0.50;;;;;;;10.92;63.60;103755.75;5019277;28;20542;-86
2022/01/23 10:29:26;;;;;;;0.20;0.20;;;;;;;10.97;63.48;103759.41;5025974;28;20022;-87
2022/01/23 10:32:19;;;;;;;0.10;0.10;;;;;;;11.10;63.33;103749.09;5019343;28;20097;-89
2022/01/23 10:37:40;;;;;;;0.10;0.10;;;;;;;11.09;62.90;103752.63;5091385;27;20471;-84
2022/01/23 10:40:30;;;;;;;0.30;0.30;;;;;;;11.19;62.91;103759.97;5052236;28;20424;-88
2022/01/23 10:46:38;;;;;;;0.55;0.55;;;;;;;11.18;63.18;103750.19;5037668;28;20041;-84
2022/01/23 10:48:37;;;;;;;0.15;0.15;;;;;;;11.33;62.75;103742.59;5033998;28;20111;-80
2022/01/23 10:54:11;;;;;;;0.10;0.10;;;;;;;11.37;62.89;103748.88;5123808;27;20395;-82
2022/01/23 10:56:54;;;;;;;0.20;0.20;;;;;;;11.38;63.03;103749.78;5122075;28;20023;-84
2022/01/23 10:59:21;;;;;;;0.20;0.20;;;;;;;11.40;62.85;103742.75;5104953;28;20038;-87
2022/01/23 11:02:10;;;;;;;0.10;0.10;;;;;;;11.41;62.55;103747.19;5113114;27;20028;-88
2022/01/23 11:04:58;;;;;;;0.32;0.32;;;;;;;11.37;61.38;103742.69;5102788;28;20030;-87
2022/01/23 11:07:26;;;;;;;0.28;0.28;;;;;;;11.31;62.51;103744.34;5104433;27;20050;-86
2022/01/23 11:09:59;;;;;;;0.20;0.20;;;;;;;11.32;62.00;103740.78;5098805;28;20057;-85
2022/01/23 11:17:22;;;;;;;0.73;0.73;;;;;;;11.27;62.07;103745.09;5125005;27;20060;-93
2022/01/23 11:18:04;;;;;;;0.52;0.52;;;;;;;11.25;61.85;103732.66;5054980;28;20536;-89
2022/01/23 11:20:38;;;;;;;0.20;0.20;;;;;;;11.27;62.35;103734.47;5039088;28;20528;-85
2022/01/23 11:28:43;;;;;;;0.10;0.10;;;;;;;11.29;62.33;103729.19;4733632;27;12071912;-89
2022/01/23 11:31:16;;;;;;;0.63;0.63;;;;;;;11.31;61.58;103727.50;5117614;27;20020;-84
2022/01/23 11:33:43;;;;;;;1.75;1.02;;;;;;;11.34;61.63;103724.94;5116311;28;20118;-89
2022/01/23 11:36:17;;;;;;;0.75;0.75;;;;;;;11.39;62.09;103725.00;5125745;27;20019;-84
2022/01/23 11:38:48;;;;;;;0.45;0.45;;;;;;;11.42;61.06;103720.66;5120741;28;20100;-87
2022/01/23 11:55:34;;;;;;;0.10;0.10;;;;;;;11.59;60.20;103706.88;5041043;28;20126;-77
2022/01/23 11:58:28;;;;;;;0.17;0.17;;;;;;;11.62;60.42;103701.63;5040528;28;20067;-87
2022/01/23 12:01:26;;;;;;;0.40;0.40;;;;;;;11.70;60.63;103701.78;5048295;28;20025;-95
2022/01/23 12:04:18;;;;;;;0.10;0.10;;;;;;;11.70;60.22;103701.78;5043390;28;20112;-79
2022/01/23 12:10:26;;;;;;;0.40;0.40;;;;;;;11.80;60.85;103696.72;5081595;27;2149973;-85
2022/01/23 12:19:54;;;;;;;3.30;1.40;;;;;;;11.84;60.95;103695.03;5060601;28;20425;-92
2022/01/23 12:25:30;;;;;;;0.30;0.30;;;;;;;11.82;60.81;103695.00;5089406;28;20441;-89
2022/01/23 12:32:12;;;;;;;0.30;0.30;;;;;;;11.89;59.73;103685.38;5110849;27;20411;-96
2022/01/23 12:34:52;;;;;;;0.60;0.60;;;;;;;11.82;59.72;103686.13;5080837;28;20043;-79
2022/01/23 12:37:24;;;;;;;1.13;1.13;;;;;;;11.77;60.40;103686.00;5095353;28;20032;-96
2022/01/23 12:40:31;;;;;;;0.73;0.73;;;;;;;11.86;59.70;103681.75;5104208;28;20025;-89
2022/01/23 12:43:06;;;;;;;0.10;0.10;;;;;;;11.86;59.91;103681.75;5091981;28;20037;-86
2022/01/23 12:45:58;;;;;;;1.17;1.08;;;;;;;11.91;59.48;103672.13;5092838;28;20044;-95
2022/01/23 12:51:42;;;;;;;0.10;0.10;;;;;;;11.86;58.90;103669.34;5092023;28;20468;-89
2022/01/23 12:54:15;;;;;;;0.17;0.17;;;;;;;11.84;58.32;103676.44;5071246;28;20491;-91
2022/01/23 12:56:44;;;;;;;1.25;1.23;;;;;;;11.80;57.75;103675.47;5064177;28;20035;-87
2022/01/23 12:59:20;;;;;;;0.17;0.17;;;;;;;11.83;58.81;103679.94;5057459;28;20498;-86
2022/01/23 13:01:48;;;;;;;0.30;0.30;;;;;;;11.76;58.23;103673.63;5046652;28;20037;-87
2022/01/23 13:04:16;;;;;;;0.65;0.65;;;;;;;11.67;58.07;103675.19;5046749;28;20366;-88
2022/01/23 13:06:53;;;;;;;0.88;0.85;;;;;;;11.72;58.23;103678.81;5047488;28;20116;-87
2022/01/23 13:12:28;;;;;;;1.50;0.55;;;;;;;11.76;57.36;103680.66;4972177;27;3268826;-86
2022/01/23 13:18:10;;;;;;;0.32;0.32;;;;;;;11.51;57.83;103676.63;5078329;28;20864;-85
2022/01/23 13:27:30;;;;;;;0.20;0.20;;;;;;;11.38;58.52;103664.84;5000512;28;21636;-81
2022/01/23 13:32:07;;;;;;;0.20;0.20;;;;;;;11.43;58.79;103673.81;5039092;28;21031;-86
2022/01/23 13:37:18;;;;;;;0.10;0.10;;;;;;;11.42;58.26;103661.38;5025647;27;1756269;-79
2022/01/23 13:39:54;;;;;;;0.10;0.10;;;;;;;11.47;58.35;103662.38;5068846;28;20090;-86
2022/01/23 14:02:15;;;;;;;3.60;1.05;;;;;;;11.21;57.82;103657.38;5027807;27;1671543;-87
2022/01/23 14:07:49;;;;;;;1.00;1.00;;;;;;;11.19;57.77;103653.81;5167497;27;20133;-85
2022/01/23 14:10:20;;;;;;;0.20;0.20;;;;;;;11.21;57.80;103657.38;5085134;28;20047;-88
2022/01/23 14:12:50;;;;;;;0.13;0.13;;;;;;;11.18;57.41;103652.00;5098240;28;20025;-87
2022/01/23 14:15:20;;;;;;;0.20;0.20;;;;;;;11.21;57.47;103653.84;5087703;28;20067;-87
2022/01/23 14:18:08;;;;;;;0.10;0.10;;;;;;;11.29;56.87;103650.50;5095565;28;20478;-87
2022/01/23 14:20:41;;;;;;;0.20;0.20;;;;;;;11.17;55.94;103640.47;5101483;28;20032;-87
2022/01/23 14:23:15;;;;;;;0.10;0.10;;;;;;;11.16;57.02;103643.09;5107165;28;20055;-87
2022/01/23 14:28:28;;;;;;;1.13;0.98;;;;;;;11.09;56.06;103647.41;4948780;27;3868842;-87
2022/01/23 14:30:59;;;;;;;0.13;0.13;;;;;;;11.02;55.85;103639.25;5055621;28;20075;-83
2022/01/23 14:36:15;;;;;;;0.45;0.45;;;;;;;11.02;56.21;103639.25;4525898;27;17823022;-88
2022/01/23 14:38:55;;;;;;;1.30;0.85;;;;;;;11.02;56.14;103649.88;5121252;27;20046;-84
2022/01/23 14:41:24;;;;;;;0.13;0.13;;;;;;;10.93;56.01;103654.09;5104238;28;20383;-88
2022/01/23 14:43:51;;;;;;;2.60;1.27;;;;;;;10.91;56.75;103650.50;5104827;28;20035;-89
2022/01/23 14:46:18;;;;;;;0.47;0.47;;;;;;;10.90;56.68;103654.00;5107933;28;20482;-88
2022/01/23 14:48:48;;;;;;;0.32;0.32;;;;;;;10.87;56.57;103653.94;5109508;28;20032;-79
2022/01/23 14:51:20;;;;;;;0.10;0.10;;;;;;;10.78;56.15;103651.06;5107932;28;20516;-92
2022/01/23 14:53:47;;;;;;;0.20;0.20;;;;;;;10.79;56.44;103653.78;5108510;28;20085;-92
2022/01/23 14:56:14;;;;;;;1.17;0.55;;;;;;;10.75;56.79;103656.31;5104746;28;20032;-86
2022/01/23 14:58:44;;;;;;;0.30;0.30;;;;;;;10.80;56.78;103649.34;5105861;28;20058;-91
2022/01/23 15:01:13;;;;;;;0.20;0.20;;;;;;;10.80;56.84;103650.25;5105415;28;20027;-89
2022/01/23 15:03:43;;;;;;;0.55;0.55;;;;;;;10.77;57.25;103649.28;5103908;28;20055;-89
2022/01/23 15:06:10;;;;;;;0.10;0.10;;;;;;;10.72;56.66;103640.34;5102445;28;20027;-87
2022/01/23 15:08:38;;;;;;;0.10;0.10;;;;;;;10.65;56.48;103645.47;5106790;28;20027;-83
2022/01/23 15:11:05;;;;;;;0.10;0.10;;;;;;;10.64;56.79;103643.69;5107397;28;20027;-92
2022/01/23 15:13:31;;;;;;;1.70;1.60;;;;;;;10.65;57.04;103645.47;5108245;28;20028;-91
2022/01/23 15:15:58;;;;;;;0.25;0.25;;;;;;;10.65;56.74;103642.84;5101420;28;20036;-89
2022/01/23 15:18:26;;;;;;;0.10;0.10;;;;;;;10.64;56.67;103645.41;5101992;28;20467;-92
2022/01/23 15:20:52;;;;;;;1.75;1.65;;;;;;;10.63;57.30;103633.94;5100905;28;20497;-91
2022/01/23 15:23:19;;;;;;;0.10;0.10;;;;;;;10.62;57.51;103636.56;5104483;28;20455;-89
2022/01/23 15:25:48;;;;;;;0.20;0.20;;;;;;;10.67;57.75;103638.44;5089702;28;20120;-88
2022/01/23 15:28:15;;;;;;;0.75;0.75;;;;;;;10.61;57.47;103637.41;5105314;28;20040;-90
2022/01/23 15:30:44;;;;;;;0.57;0.57;;;;;;;10.59;57.32;103634.72;5099437;28;20024;-91
2022/01/23 15:33:10;;;;;;;0.20;0.20;;;;;;;10.58;57.46;103640.88;5104118;28;20054;-91
2022/01/23 15:35:46;;;;;;;0.28;0.28;;;;;;;10.61;57.72;103640.94;5109188;28;20074;-92
2022/01/23 15:38:13;;;;;;;2.30;1.70;;;;;;;10.56;56.62;103639.06;5103330;28;20029;-92